sensor_id;sensor_type;location;lat;lon;timestamp;P1;durP1;ratioP1;P2;durP2;ratioP2
22660;SDS011;11497;52.222;21.246;2023-01-10T00:01:40;68.63;;;28.08;;
22660;SDS011;11497;52.222;21.246;2023-01-10T00:04:08;62.83;;;26.33;;
22660;SDS011;11497;52.222;21.246;2023-01-10T00:06:36;62.35;;;28.27;;
22660;SDS011;11497;52.222;21.246;2023-01-10T00:09:04;64.97;;;27.83;;
22660;SDS011;11497;52.222;21.246;2023-01-10T00:11:32;66.97;;;29.30;;
22660;SDS011;11497;52.222;21.246;2023-01-10T00:14:18;59.92;;;28.38;;
22660;SDS011;11497;52.222;21.246;2023-01-10T00:16:46;55.55;;;26.83;;
22660;SDS011;11497;52.222;21.246;2023-01-10T00:19:14;58.65;;;26.35;;
22660;SDS011;11497;52.222;21.246;2023-01-10T00:21:42;57.45;;;27.50;;
22660;SDS011;11497;52.222;21.246;2023-01-10T00:24:10;58.53;;;27.55;;
22660;SDS011;11497;52.222;21.246;2023-01-10T00:26:49;58.10;;;26.65;;
22660;SDS011;11497;52.222;21.246;2023-01-10T00:29:21;61.22;;;27.63;;
22660;SDS011;11497;52.222;21.246;2023-01-10T00:31:57;59.65;;;27.40;;
22660;SDS011;11497;52.222;21.246;2023-01-10T00:34:25;64.70;;;29.27;;
22660;SDS011;11497;52.222;21.246;2023-01-10T00:36:53;64.18;;;27.85;;
22660;SDS011;11497;52.222;21.246;2023-01-10T00:39:21;64.38;;;27.63;;
22660;SDS011;11497;52.222;21.246;2023-01-10T00:41:52;68.38;;;27.58;;
22660;SDS011;11497;52.222;21.246;2023-01-10T00:44:39;66.40;;;27.73;;
22660;SDS011;11497;52.222;21.246;2023-01-10T00:47:07;65.68;;;28.75;;
22660;SDS011;11497;52.222;21.246;2023-01-10T00:49:34;67.35;;;27.92;;
22660;SDS011;11497;52.222;21.246;2023-01-10T00:52:02;61.53;;;27.20;;
22660;SDS011;11497;52.222;21.246;2023-01-10T00:54:30;65.95;;;27.52;;
22660;SDS011;11497;52.222;21.246;2023-01-10T00:56:58;61.63;;;27.63;;
22660;SDS011;11497;52.222;21.246;2023-01-10T00:59:26;60.38;;;26.65;;
22660;SDS011;11497;52.222;21.246;2023-01-10T01:01:55;62.13;;;28.17;;
22660;SDS011;11497;52.222;21.246;2023-01-10T01:04:23;68.28;;;28.45;;
22660;SDS011;11497;52.222;21.246;2023-01-10T01:06:51;60.47;;;28.05;;
22660;SDS011;11497;52.222;21.246;2023-01-10T01:09:18;63.30;;;28.20;;
22660;SDS011;11497;52.222;21.246;2023-01-10T01:11:46;63.90;;;27.38;;
22660;SDS011;11497;52.222;21.246;2023-01-10T01:14:15;59.05;;;27.55;;
22660;SDS011;11497;52.222;21.246;2023-01-10T01:16:42;61.97;;;28.17;;
22660;SDS011;11497;52.222;21.246;2023-01-10T01:19:10;60.65;;;28.23;;
22660;SDS011;11497;52.222;21.246;2023-01-10T01:21:38;66.50;;;28.38;;
22660;SDS011;11497;52.222;21.246;2023-01-10T01:24:07;62.28;;;27.80;;
22660;SDS011;11497;52.222;21.246;2023-01-10T01:26:38;64.68;;;26.80;;
22660;SDS011;11497;52.222;21.246;2023-01-10T01:29:08;63.85;;;27.75;;
22660;SDS011;11497;52.222;21.246;2023-01-10T01:31:36;61.65;;;27.15;;
22660;SDS011;11497;52.222;21.246;2023-01-10T01:34:03;63.05;;;27.58;;
22660;SDS011;11497;52.222;21.246;2023-01-10T01:36:32;62.50;;;26.83;;
22660;SDS011;11497;52.222;21.246;2023-01-10T01:38:59;63.90;;;27.70;;
22660;SDS011;11497;52.222;21.246;2023-01-10T01:41:27;61.13;;;27.13;;
22660;SDS011;11497;52.222;21.246;2023-01-10T01:44:15;59.50;;;26.40;;
22660;SDS011;11497;52.222;21.246;2023-01-10T01:46:49;60.15;;;27.50;;
22660;SDS011;11497;52.222;21.246;2023-01-10T01:49:41;63.80;;;28.05;;
22660;SDS011;11497;52.222;21.246;2023-01-10T01:52:14;67.07;;;27.40;;
22660;SDS011;11497;52.222;21.246;2023-01-10T01:54:50;62.97;;;28.33;;
22660;SDS011;11497;52.222;21.246;2023-01-10T01:57:23;64.47;;;29.33;;
22660;SDS011;11497;52.222;21.246;2023-01-10T01:59:54;64.00;;;28.33;;
22660;SDS011;11497;52.222;21.246;2023-01-10T02:02:27;67.30;;;27.98;;
22660;SDS011;11497;52.222;21.246;2023-01-10T02:07:33;63.15;;;28.60;;
22660;SDS011;11497;52.222;21.246;2023-01-10T02:10:08;68.00;;;30.05;;
22660;SDS011;11497;52.222;21.246;2023-01-10T02:12:44;66.95;;;29.38;;
22660;SDS011;11497;52.222;21.246;2023-01-10T02:15:15;68.00;;;29.67;;
22660;SDS011;11497;52.222;21.246;2023-01-10T02:17:48;75.82;;;30.83;;
22660;SDS011;11497;52.222;21.246;2023-01-10T02:20:18;68.13;;;30.52;;
22660;SDS011;11497;52.222;21.246;2023-01-10T02:31:28;82.82;;;36.25;;
22660;SDS011;11497;52.222;21.246;2023-01-10T02:34:12;81.78;;;35.35;;
22660;SDS011;11497;52.222;21.246;2023-01-10T02:36:59;75.70;;;33.08;;
22660;SDS011;11497;52.222;21.246;2023-01-10T02:39:43;82.07;;;33.72;;
22660;SDS011;11497;52.222;21.246;2023-01-10T02:45:40;70.75;;;31.02;;
22660;SDS011;11497;52.222;21.246;2023-01-10T02:48:17;70.47;;;30.63;;
22660;SDS011;11497;52.222;21.246;2023-01-10T02:54:01;78.10;;;33.20;;
22660;SDS011;11497;52.222;21.246;2023-01-10T03:10:13;75.32;;;31.75;;
22660;SDS011;11497;52.222;21.246;2023-01-10T03:13:04;77.97;;;31.73;;
22660;SDS011;11497;52.222;21.246;2023-01-10T03:15:34;78.53;;;32.20;;
22660;SDS011;11497;52.222;21.246;2023-01-10T03:18:07;81.68;;;32.55;;
22660;SDS011;11497;52.222;21.246;2023-01-10T03:20:43;82.57;;;32.92;;
22660;SDS011;11497;52.222;21.246;2023-01-10T03:23:15;76.68;;;33.03;;
22660;SDS011;11497;52.222;21.246;2023-01-10T03:25:44;83.38;;;32.92;;
22660;SDS011;11497;52.222;21.246;2023-01-10T03:28:20;85.55;;;33.85;;
22660;SDS011;11497;52.222;21.246;2023-01-10T03:31:15;79.60;;;32.13;;
22660;SDS011;11497;52.222;21.246;2023-01-10T03:33:52;87.20;;;33.17;;
22660;SDS011;11497;52.222;21.246;2023-01-10T03:39:41;81.45;;;33.28;;
22660;SDS011;11497;52.222;21.246;2023-01-10T03:45:23;82.55;;;32.90;;
22660;SDS011;11497;52.222;21.246;2023-01-10T03:47:59;84.95;;;32.45;;
22660;SDS011;11497;52.222;21.246;2023-01-10T03:50:31;79.15;;;33.05;;
22660;SDS011;11497;52.222;21.246;2023-01-10T03:53:01;81.65;;;32.88;;
22660;SDS011;11497;52.222;21.246;2023-01-10T03:55:30;84.15;;;32.03;;
22660;SDS011;11497;52.222;21.246;2023-01-10T03:57:59;87.20;;;32.25;;
22660;SDS011;11497;52.222;21.246;2023-01-10T04:00:26;89.20;;;33.83;;
22660;SDS011;11497;52.222;21.246;2023-01-10T04:02:54;78.32;;;32.53;;
22660;SDS011;11497;52.222;21.246;2023-01-10T04:05:24;79.85;;;33.40;;
22660;SDS011;11497;52.222;21.246;2023-01-10T04:07:53;82.05;;;32.25;;
22660;SDS011;11497;52.222;21.246;2023-01-10T04:10:21;76.75;;;31.63;;
22660;SDS011;11497;52.222;21.246;2023-01-10T04:12:50;83.35;;;32.20;;
22660;SDS011;11497;52.222;21.246;2023-01-10T04:15:19;79.72;;;31.95;;
22660;SDS011;11497;52.222;21.246;2023-01-10T04:17:47;83.55;;;33.45;;
22660;SDS011;11497;52.222;21.246;2023-01-10T04:20:15;81.00;;;31.70;;
22660;SDS011;11497;52.222;21.246;2023-01-10T04:22:44;86.40;;;33.85;;
22660;SDS011;11497;52.222;21.246;2023-01-10T04:25:12;85.28;;;32.92;;
22660;SDS011;11497;52.222;21.246;2023-01-10T04:27:40;78.63;;;32.22;;
22660;SDS011;11497;52.222;21.246;2023-01-10T04:30:08;80.60;;;32.40;;
22660;SDS011;11497;52.222;21.246;2023-01-10T04:32:37;82.57;;;32.78;;
22660;SDS011;11497;52.222;21.246;2023-01-10T04:35:05;78.75;;;31.90;;
22660;SDS011;11497;52.222;21.246;2023-01-10T04:37:33;79.05;;;32.58;;
22660;SDS011;11497;52.222;21.246;2023-01-10T04:40:01;81.15;;;31.90;;
22660;SDS011;11497;52.222;21.246;2023-01-10T04:42:29;82.72;;;32.75;;
22660;SDS011;11497;52.222;21.246;2023-01-10T04:44:57;85.97;;;33.08;;
22660;SDS011;11497;52.222;21.246;2023-01-10T04:47:25;81.63;;;32.03;;
22660;SDS011;11497;52.222;21.246;2023-01-10T04:49:53;84.07;;;32.05;;
22660;SDS011;11497;52.222;21.246;2023-01-10T04:52:20;81.18;;;31.08;;
22660;SDS011;11497;52.222;21.246;2023-01-10T04:54:51;81.15;;;30.67;;
22660;SDS011;11497;52.222;21.246;2023-01-10T04:57:18;75.00;;;30.77;;
22660;SDS011;11497;52.222;21.246;2023-01-10T04:59:46;75.35;;;30.40;;
22660;SDS011;11497;52.222;21.246;2023-01-10T05:02:14;80.72;;;31.60;;
22660;SDS011;11497;52.222;21.246;2023-01-10T05:04:42;85.78;;;32.80;;
22660;SDS011;11497;52.222;21.246;2023-01-10T05:07:10;80.72;;;31.60;;
22660;SDS011;11497;52.222;21.246;2023-01-10T05:09:38;69.85;;;29.92;;
22660;SDS011;11497;52.222;21.246;2023-01-10T05:12:06;75.60;;;31.50;;
22660;SDS011;11497;52.222;21.246;2023-01-10T05:14:34;83.60;;;31.95;;
22660;SDS011;11497;52.222;21.246;2023-01-10T05:17:02;80.72;;;32.55;;
22660;SDS011;11497;52.222;21.246;2023-01-10T05:19:30;80.18;;;32.15;;
22660;SDS011;11497;52.222;21.246;2023-01-10T05:21:57;80.35;;;33.38;;
22660;SDS011;11497;52.222;21.246;2023-01-10T05:24:25;83.10;;;31.80;;
22660;SDS011;11497;52.222;21.246;2023-01-10T05:26:53;80.70;;;31.30;;
22660;SDS011;11497;52.222;21.246;2023-01-10T05:29:21;83.90;;;33.22;;
22660;SDS011;11497;52.222;21.246;2023-01-10T05:31:49;83.20;;;32.88;;
22660;SDS011;11497;52.222;21.246;2023-01-10T05:34:17;79.78;;;31.45;;
22660;SDS011;11497;52.222;21.246;2023-01-10T05:36:45;83.93;;;32.25;;
22660;SDS011;11497;52.222;21.246;2023-01-10T05:39:13;79.72;;;31.77;;
22660;SDS011;11497;52.222;21.246;2023-01-10T05:41:41;90.28;;;32.53;;
22660;SDS011;11497;52.222;21.246;2023-01-10T05:44:09;87.95;;;32.58;;
22660;SDS011;11497;52.222;21.246;2023-01-10T05:46:36;81.93;;;32.13;;
22660;SDS011;11497;52.222;21.246;2023-01-10T05:49:04;79.50;;;31.02;;
22660;SDS011;11497;52.222;21.246;2023-01-10T05:51:32;87.30;;;31.67;;
22660;SDS011;11497;52.222;21.246;2023-01-10T05:54:00;89.22;;;33.03;;
22660;SDS011;11497;52.222;21.246;2023-01-10T05:56:28;84.70;;;32.03;;
22660;SDS011;11497;52.222;21.246;2023-01-10T05:58:56;84.72;;;31.00;;
22660;SDS011;11497;52.222;21.246;2023-01-10T06:01:37;80.03;;;31.75;;
22660;SDS011;11497;52.222;21.246;2023-01-10T06:04:05;80.00;;;31.75;;
22660;SDS011;11497;52.222;21.246;2023-01-10T06:06:32;87.93;;;31.50;;
22660;SDS011;11497;52.222;21.246;2023-01-10T06:09:00;84.63;;;32.90;;
22660;SDS011;11497;52.222;21.246;2023-01-10T06:11:28;79.57;;;31.20;;
22660;SDS011;11497;52.222;21.246;2023-01-10T06:13:56;81.75;;;32.72;;
22660;SDS011;11497;52.222;21.246;2023-01-10T06:16:24;84.97;;;32.83;;
22660;SDS011;11497;52.222;21.246;2023-01-10T06:18:52;87.60;;;32.42;;
22660;SDS011;11497;52.222;21.246;2023-01-10T06:21:20;82.03;;;32.20;;
22660;SDS011;11497;52.222;21.246;2023-01-10T06:23:48;88.43;;;32.67;;
22660;SDS011;11497;52.222;21.246;2023-01-10T06:26:15;84.43;;;32.08;;
22660;SDS011;11497;52.222;21.246;2023-01-10T06:28:44;78.20;;;30.90;;
22660;SDS011;11497;52.222;21.246;2023-01-10T06:31:12;82.65;;;32.38;;
22660;SDS011;11497;52.222;21.246;2023-01-10T06:33:41;85.00;;;32.17;;
22660;SDS011;11497;52.222;21.246;2023-01-10T06:36:09;88.13;;;32.08;;
22660;SDS011;11497;52.222;21.246;2023-01-10T06:38:37;90.05;;;33.08;;
22660;SDS011;11497;52.222;21.246;2023-01-10T06:41:05;89.82;;;32.92;;
22660;SDS011;11497;52.222;21.246;2023-01-10T06:43:42;81.63;;;31.33;;
22660;SDS011;11497;52.222;21.246;2023-01-10T06:46:12;87.97;;;32.40;;
22660;SDS011;11497;52.222;21.246;2023-01-10T06:48:42;89.78;;;32.78;;
22660;SDS011;11497;52.222;21.246;2023-01-10T06:51:12;91.10;;;33.00;;
22660;SDS011;11497;52.222;21.246;2023-01-10T06:53:41;81.47;;;33.25;;
22660;SDS011;11497;52.222;21.246;2023-01-10T06:56:09;89.00;;;32.53;;
22660;SDS011;11497;52.222;21.246;2023-01-10T06:58:38;90.25;;;32.38;;
22660;SDS011;11497;52.222;21.246;2023-01-10T07:01:06;84.70;;;32.63;;
22660;SDS011;11497;52.222;21.246;2023-01-10T07:03:42;89.72;;;32.33;;
22660;SDS011;11497;52.222;21.246;2023-01-10T07:06:10;86.18;;;31.50;;
22660;SDS011;11497;52.222;21.246;2023-01-10T07:08:39;86.70;;;30.88;;
22660;SDS011;11497;52.222;21.246;2023-01-10T07:11:08;87.70;;;31.58;;
22660;SDS011;11497;52.222;21.246;2023-01-10T07:13:38;87.85;;;31.50;;
22660;SDS011;11497;52.222;21.246;2023-01-10T07:16:07;84.93;;;32.03;;
22660;SDS011;11497;52.222;21.246;2023-01-10T07:18:41;84.43;;;32.55;;
22660;SDS011;11497;52.222;21.246;2023-01-10T07:21:09;81.95;;;31.35;;
22660;SDS011;11497;52.222;21.246;2023-01-10T07:23:38;93.18;;;33.03;;
22660;SDS011;11497;52.222;21.246;2023-01-10T07:26:07;87.25;;;30.75;;
22660;SDS011;11497;52.222;21.246;2023-01-10T07:28:37;92.32;;;32.15;;
22660;SDS011;11497;52.222;21.246;2023-01-10T07:31:04;87.00;;;31.23;;
22660;SDS011;11497;52.222;21.246;2023-01-10T07:33:32;88.93;;;31.13;;
22660;SDS011;11497;52.222;21.246;2023-01-10T07:36:00;87.80;;;31.48;;
22660;SDS011;11497;52.222;21.246;2023-01-10T07:38:29;81.70;;;30.33;;
22660;SDS011;11497;52.222;21.246;2023-01-10T07:40:56;84.88;;;31.52;;
22660;SDS011;11497;52.222;21.246;2023-01-10T07:43:27;87.43;;;29.58;;
22660;SDS011;11497;52.222;21.246;2023-01-10T07:45:58;86.47;;;29.95;;
22660;SDS011;11497;52.222;21.246;2023-01-10T07:48:27;92.40;;;31.00;;
22660;SDS011;11497;52.222;21.246;2023-01-10T07:50:58;92.68;;;30.33;;
22660;SDS011;11497;52.222;21.246;2023-01-10T07:53:27;89.55;;;31.52;;
22660;SDS011;11497;52.222;21.246;2023-01-10T07:56:01;95.63;;;32.60;;
22660;SDS011;11497;52.222;21.246;2023-01-10T07:58:30;93.05;;;32.75;;
22660;SDS011;11497;52.222;21.246;2023-01-10T08:00:59;84.97;;;29.88;;
22660;SDS011;11497;52.222;21.246;2023-01-10T08:03:29;88.28;;;31.45;;
22660;SDS011;11497;52.222;21.246;2023-01-10T08:05:59;90.13;;;32.22;;
22660;SDS011;11497;52.222;21.246;2023-01-10T08:08:28;86.93;;;29.85;;
22660;SDS011;11497;52.222;21.246;2023-01-10T08:10:56;94.40;;;31.05;;
22660;SDS011;11497;52.222;21.246;2023-01-10T08:13:31;90.13;;;31.95;;
22660;SDS011;11497;52.222;21.246;2023-01-10T08:16:02;87.15;;;28.48;;
22660;SDS011;11497;52.222;21.246;2023-01-10T08:18:32;84.70;;;29.87;;
22660;SDS011;11497;52.222;21.246;2023-01-10T08:21:00;84.07;;;31.05;;
22660;SDS011;11497;52.222;21.246;2023-01-10T08:23:28;93.60;;;30.67;;
22660;SDS011;11497;52.222;21.246;2023-01-10T08:25:57;88.97;;;30.15;;
22660;SDS011;11497;52.222;21.246;2023-01-10T08:28:26;81.68;;;27.73;;
22660;SDS011;11497;52.222;21.246;2023-01-10T08:30:54;80.05;;;28.40;;
22660;SDS011;11497;52.222;21.246;2023-01-10T08:33:22;93.80;;;30.75;;
22660;SDS011;11497;52.222;21.246;2023-01-10T08:35:51;92.43;;;29.92;;
22660;SDS011;11497;52.222;21.246;2023-01-10T08:38:19;86.15;;;28.63;;
22660;SDS011;11497;52.222;21.246;2023-01-10T08:40:46;81.78;;;28.88;;
22660;SDS011;11497;52.222;21.246;2023-01-10T08:43:14;83.97;;;29.17;;
22660;SDS011;11497;52.222;21.246;2023-01-10T08:45:42;84.25;;;29.88;;
22660;SDS011;11497;52.222;21.246;2023-01-10T08:48:10;81.43;;;28.17;;
22660;SDS011;11497;52.222;21.246;2023-01-10T08:50:38;82.63;;;28.95;;
22660;SDS011;11497;52.222;21.246;2023-01-10T08:53:08;80.22;;;28.55;;
22660;SDS011;11497;52.222;21.246;2023-01-10T08:55:36;88.75;;;30.00;;
22660;SDS011;11497;52.222;21.246;2023-01-10T08:58:04;96.97;;;30.83;;
22660;SDS011;11497;52.222;21.246;2023-01-10T09:00:32;86.40;;;28.63;;
22660;SDS011;11497;52.222;21.246;2023-01-10T09:03:00;97.35;;;31.17;;
22660;SDS011;11497;52.222;21.246;2023-01-10T09:05:32;101.60;;;33.45;;
22660;SDS011;11497;52.222;21.246;2023-01-10T09:08:00;101.32;;;31.70;;
22660;SDS011;11497;52.222;21.246;2023-01-10T09:10:29;91.13;;;30.25;;
22660;SDS011;11497;52.222;21.246;2023-01-10T09:12:57;95.45;;;30.48;;
22660;SDS011;11497;52.222;21.246;2023-01-10T09:15:28;87.00;;;30.85;;
22660;SDS011;11497;52.222;21.246;2023-01-10T09:17:59;84.20;;;30.15;;
22660;SDS011;11497;52.222;21.246;2023-01-10T09:20:30;80.07;;;28.15;;
22660;SDS011;11497;52.222;21.246;2023-01-10T09:23:03;81.90;;;29.17;;
22660;SDS011;11497;52.222;21.246;2023-01-10T09:25:32;86.95;;;28.88;;
22660;SDS011;11497;52.222;21.246;2023-01-10T09:28:01;78.18;;;27.67;;
22660;SDS011;11497;52.222;21.246;2023-01-10T09:30:30;81.40;;;27.13;;
22660;SDS011;11497;52.222;21.246;2023-01-10T09:32:59;76.25;;;28.80;;
22660;SDS011;11497;52.222;21.246;2023-01-10T09:35:27;80.40;;;27.58;;
22660;SDS011;11497;52.222;21.246;2023-01-10T09:37:58;87.70;;;29.77;;
22660;SDS011;11497;52.222;21.246;2023-01-10T09:40:30;87.85;;;29.60;;
22660;SDS011;11497;52.222;21.246;2023-01-10T09:51:21;80.30;;;28.98;;
22660;SDS011;11497;52.222;21.246;2023-01-10T09:54:05;81.63;;;29.50;;
22660;SDS011;11497;52.222;21.246;2023-01-10T09:56:38;85.18;;;28.98;;
22660;SDS011;11497;52.222;21.246;2023-01-10T09:59:10;94.00;;;30.83;;
22660;SDS011;11497;52.222;21.246;2023-01-10T10:01:46;89.57;;;30.17;;
22660;SDS011;11497;52.222;21.246;2023-01-10T10:04:23;73.05;;;27.73;;
22660;SDS011;11497;52.222;21.246;2023-01-10T10:06:59;81.22;;;27.55;;
22660;SDS011;11497;52.222;21.246;2023-01-10T10:09:29;84.45;;;28.48;;
22660;SDS011;11497;52.222;21.246;2023-01-10T10:14:56;71.70;;;26.70;;
22660;SDS011;11497;52.222;21.246;2023-01-10T10:26:10;72.38;;;27.52;;
22660;SDS011;11497;52.222;21.246;2023-01-10T10:34:16;69.55;;;27.17;;
22660;SDS011;11497;52.222;21.246;2023-01-10T10:37:16;70.55;;;27.00;;
22660;SDS011;11497;52.222;21.246;2023-01-10T10:40:02;72.38;;;29.40;;
22660;SDS011;11497;52.222;21.246;2023-01-10T10:42:38;70.25;;;26.50;;
22660;SDS011;11497;52.222;21.246;2023-01-10T10:47:50;74.53;;;27.83;;
22660;SDS011;11497;52.222;21.246;2023-01-10T10:50:27;76.22;;;30.00;;
22660;SDS011;11497;52.222;21.246;2023-01-10T10:53:00;64.32;;;24.38;;
22660;SDS011;11497;52.222;21.246;2023-01-10T10:55:30;70.47;;;26.80;;
22660;SDS011;11497;52.222;21.246;2023-01-10T10:58:03;66.22;;;25.75;;
22660;SDS011;11497;52.222;21.246;2023-01-10T11:00:33;61.08;;;24.23;;
22660;SDS011;11497;52.222;21.246;2023-01-10T11:03:09;68.00;;;25.75;;
22660;SDS011;11497;52.222;21.246;2023-01-10T11:05:45;62.72;;;24.98;;
22660;SDS011;11497;52.222;21.246;2023-01-10T11:08:14;64.72;;;25.92;;
22660;SDS011;11497;52.222;21.246;2023-01-10T11:10:51;65.10;;;23.85;;
22660;SDS011;11497;52.222;21.246;2023-01-10T11:16:01;65.63;;;25.20;;
22660;SDS011;11497;52.222;21.246;2023-01-10T11:18:32;65.18;;;24.48;;
22660;SDS011;11497;52.222;21.246;2023-01-10T11:21:12;62.33;;;24.75;;
22660;SDS011;11497;52.222;21.246;2023-01-10T11:23:49;61.58;;;26.17;;
22660;SDS011;11497;52.222;21.246;2023-01-10T11:28:51;61.25;;;25.42;;
22660;SDS011;11497;52.222;21.246;2023-01-10T11:31:32;61.30;;;25.75;;
22660;SDS011;11497;52.222;21.246;2023-01-10T11:34:04;62.88;;;23.55;;
22660;SDS011;11497;52.222;21.246;2023-01-10T11:36:58;64.68;;;26.25;;
22660;SDS011;11497;52.222;21.246;2023-01-10T11:39:28;61.45;;;25.48;;
22660;SDS011;11497;52.222;21.246;2023-01-10T11:42:17;61.83;;;23.63;;
22660;SDS011;11497;52.222;21.246;2023-01-10T11:50:27;59.97;;;24.42;;
22660;SDS011;11497;52.222;21.246;2023-01-10T11:52:58;65.97;;;25.73;;
22660;SDS011;11497;52.222;21.246;2023-01-10T11:55:27;64.43;;;24.90;;
22660;SDS011;11497;52.222;21.246;2023-01-10T11:58:01;67.60;;;25.67;;
22660;SDS011;11497;52.222;21.246;2023-01-10T12:00:40;64.07;;;25.88;;
22660;SDS011;11497;52.222;21.246;2023-01-10T12:03:15;69.20;;;25.08;;
22660;SDS011;11497;52.222;21.246;2023-01-10T12:05:59;64.80;;;25.35;;
22660;SDS011;11497;52.222;21.246;2023-01-10T12:11:07;64.40;;;26.20;;
22660;SDS011;11497;52.222;21.246;2023-01-10T12:13:53;61.05;;;24.20;;
22660;SDS011;11497;52.222;21.246;2023-01-10T12:16:30;59.10;;;24.42;;
22660;SDS011;11497;52.222;21.246;2023-01-10T12:19:00;61.17;;;24.42;;
22660;SDS011;11497;52.222;21.246;2023-01-10T12:21:35;66.78;;;25.45;;
22660;SDS011;11497;52.222;21.246;2023-01-10T12:24:17;58.28;;;23.83;;
22660;SDS011;11497;52.222;21.246;2023-01-10T12:26:53;55.47;;;23.17;;
22660;SDS011;11497;52.222;21.246;2023-01-10T12:29:27;60.10;;;22.77;;
22660;SDS011;11497;52.222;21.246;2023-01-10T12:32:02;59.38;;;23.92;;
22660;SDS011;11497;52.222;21.246;2023-01-10T12:34:45;59.55;;;24.55;;
22660;SDS011;11497;52.222;21.246;2023-01-10T12:39:54;62.30;;;25.42;;
22660;SDS011;11497;52.222;21.246;2023-01-10T12:42:40;70.63;;;28.70;;
22660;SDS011;11497;52.222;21.246;2023-01-10T12:45:46;72.78;;;29.05;;
22660;SDS011;11497;52.222;21.246;2023-01-10T12:51:27;70.90;;;28.63;;
22660;SDS011;11497;52.222;21.246;2023-01-10T12:53:58;76.38;;;28.67;;
22660;SDS011;11497;52.222;21.246;2023-01-10T12:56:31;74.63;;;28.70;;
22660;SDS011;11497;52.222;21.246;2023-01-10T12:59:00;80.53;;;29.67;;
22660;SDS011;11497;52.222;21.246;2023-01-10T13:01:34;71.43;;;28.02;;
22660;SDS011;11497;52.222;21.246;2023-01-10T13:04:09;76.45;;;28.50;;
22660;SDS011;11497;52.222;21.246;2023-01-10T13:06:47;76.00;;;26.58;;
22660;SDS011;11497;52.222;21.246;2023-01-10T13:09:24;71.53;;;26.77;;
22660;SDS011;11497;52.222;21.246;2023-01-10T13:12:31;73.28;;;27.83;;
22660;SDS011;11497;52.222;21.246;2023-01-10T13:22:43;69.70;;;27.88;;
22660;SDS011;11497;52.222;21.246;2023-01-10T13:28:36;68.50;;;28.20;;
22660;SDS011;11497;52.222;21.246;2023-01-10T13:31:20;69.00;;;28.85;;
22660;SDS011;11497;52.222;21.246;2023-01-10T13:34:02;67.28;;;27.08;;
22660;SDS011;11497;52.222;21.246;2023-01-10T13:36:38;66.85;;;27.35;;
22660;SDS011;11497;52.222;21.246;2023-01-10T13:39:31;64.45;;;26.90;;
22660;SDS011;11497;52.222;21.246;2023-01-10T13:53:39;61.92;;;26.73;;
22660;SDS011;11497;52.222;21.246;2023-01-10T13:55:56;64.15;;;26.92;;
22660;SDS011;11497;52.222;21.246;2023-01-10T13:58:40;65.13;;;26.88;;
22660;SDS011;11497;52.222;21.246;2023-01-10T14:01:29;61.50;;;26.08;;
22660;SDS011;11497;52.222;21.246;2023-01-10T14:04:32;66.35;;;25.88;;
22660;SDS011;11497;52.222;21.246;2023-01-10T14:07:12;69.05;;;29.08;;
22660;SDS011;11497;52.222;21.246;2023-01-10T14:09:58;64.13;;;28.33;;
22660;SDS011;11497;52.222;21.246;2023-01-10T14:12:59;62.42;;;27.70;;
22660;SDS011;11497;52.222;21.246;2023-01-10T14:15:39;66.22;;;27.30;;
22660;SDS011;11497;52.222;21.246;2023-01-10T14:21:25;56.47;;;26.80;;
22660;SDS011;11497;52.222;21.246;2023-01-10T14:23:50;63.33;;;29.13;;
22660;SDS011;11497;52.222;21.246;2023-01-10T14:26:34;63.40;;;28.77;;
22660;SDS011;11497;52.222;21.246;2023-01-10T14:29:09;69.60;;;28.00;;
22660;SDS011;11497;52.222;21.246;2023-01-10T14:31:42;65.40;;;27.90;;
22660;SDS011;11497;52.222;21.246;2023-01-10T14:34:16;62.10;;;28.80;;
22660;SDS011;11497;52.222;21.246;2023-01-10T14:36:58;65.45;;;29.60;;
22660;SDS011;11497;52.222;21.246;2023-01-10T14:39:31;68.65;;;30.50;;
22660;SDS011;11497;52.222;21.246;2023-01-10T14:42:01;56.60;;;26.88;;
22660;SDS011;11497;52.222;21.246;2023-01-10T14:44:36;61.67;;;28.40;;
22660;SDS011;11497;52.222;21.246;2023-01-10T14:47:27;57.17;;;27.90;;
22660;SDS011;11497;52.222;21.246;2023-01-10T14:50:00;59.10;;;28.08;;
22660;SDS011;11497;52.222;21.246;2023-01-10T14:52:29;65.93;;;28.60;;
22660;SDS011;11497;52.222;21.246;2023-01-10T14:55:13;61.42;;;28.00;;
22660;SDS011;11497;52.222;21.246;2023-01-10T14:57:52;57.35;;;27.73;;
22660;SDS011;11497;52.222;21.246;2023-01-10T15:02:59;52.05;;;25.73;;
22660;SDS011;11497;52.222;21.246;2023-01-10T15:05:30;58.08;;;26.35;;
22660;SDS011;11497;52.222;21.246;2023-01-10T15:11:05;55.00;;;26.30;;
22660;SDS011;11497;52.222;21.246;2023-01-10T15:13:37;54.35;;;26.83;;
22660;SDS011;11497;52.222;21.246;2023-01-10T15:16:20;53.47;;;26.02;;
22660;SDS011;11497;52.222;21.246;2023-01-10T15:18:50;55.28;;;26.15;;
22660;SDS011;11497;52.222;21.246;2023-01-10T15:21:18;53.83;;;26.00;;
22660;SDS011;11497;52.222;21.246;2023-01-10T15:23:48;53.78;;;25.15;;
22660;SDS011;11497;52.222;21.246;2023-01-10T15:26:17;55.03;;;25.73;;
22660;SDS011;11497;52.222;21.246;2023-01-10T15:29:01;52.20;;;25.65;;
22660;SDS011;11497;52.222;21.246;2023-01-10T15:31:34;56.00;;;25.35;;
22660;SDS011;11497;52.222;21.246;2023-01-10T15:34:13;52.90;;;24.98;;
22660;SDS011;11497;52.222;21.246;2023-01-10T15:36:56;56.58;;;26.88;;
22660;SDS011;11497;52.222;21.246;2023-01-10T15:39:28;52.05;;;25.08;;
22660;SDS011;11497;52.222;21.246;2023-01-10T15:42:08;49.03;;;24.27;;
22660;SDS011;11497;52.222;21.246;2023-01-10T15:44:41;55.53;;;28.10;;
22660;SDS011;11497;52.222;21.246;2023-01-10T15:50:24;50.80;;;25.35;;
22660;SDS011;11497;52.222;21.246;2023-01-10T15:52:55;51.83;;;25.00;;
22660;SDS011;11497;52.222;21.246;2023-01-10T16:00:58;53.78;;;25.13;;
22660;SDS011;11497;52.222;21.246;2023-01-10T16:08:35;45.97;;;23.02;;
22660;SDS011;11497;52.222;21.246;2023-01-10T16:11:06;46.92;;;23.17;;
22660;SDS011;11497;52.222;21.246;2023-01-10T16:14:03;49.38;;;23.13;;
22660;SDS011;11497;52.222;21.246;2023-01-10T16:16:31;46.53;;;22.42;;
22660;SDS011;11497;52.222;21.246;2023-01-10T16:18:58;49.10;;;24.00;;
22660;SDS011;11497;52.222;21.246;2023-01-10T16:21:31;49.83;;;24.77;;
22660;SDS011;11497;52.222;21.246;2023-01-10T16:24:12;52.92;;;24.52;;
22660;SDS011;11497;52.222;21.246;2023-01-10T16:26:46;58.67;;;26.73;;
22660;SDS011;11497;52.222;21.246;2023-01-10T16:29:15;51.38;;;26.23;;
22660;SDS011;11497;52.222;21.246;2023-01-10T16:31:43;51.08;;;24.33;;
22660;SDS011;11497;52.222;21.246;2023-01-10T16:34:11;55.30;;;25.40;;
22660;SDS011;11497;52.222;21.246;2023-01-10T16:36:39;48.45;;;24.33;;
22660;SDS011;11497;52.222;21.246;2023-01-10T16:39:12;53.10;;;23.92;;
22660;SDS011;11497;52.222;21.246;2023-01-10T16:41:48;54.05;;;24.95;;
22660;SDS011;11497;52.222;21.246;2023-01-10T16:44:35;48.17;;;22.42;;
22660;SDS011;11497;52.222;21.246;2023-01-10T16:47:03;53.70;;;23.17;;
22660;SDS011;11497;52.222;21.246;2023-01-10T16:49:32;49.80;;;24.23;;